Terminal Aerodrome Forecast
Issued by NWS

Home | Current Version | Previous Version | Text Only | Print | Product List | Glossary On
Versions: 1 2 3 4 5 6 7 8 9 10 11 12 13 14 15 16 17 18 19 20
000
FTUS41 KOKX 230500 RRA
TAFHPN
TAF
KHPN 230544Z 2306/2406 VRB03KT P6SM FEW250
      TEMPO 2309/2313 5SM BR
     FM231400 23007KT P6SM SCT250
     FM231800 20009KT P6SM SCT050 BKN250 PROB30 2322/2403 5SM TSRA
      BKN050CB
     FM240300 VRB04KT P6SM SCT050 BKN250 PROB30 2403/2406 5SM TSRA
      BKN050CB
      AMD NOT SKED=

USA.gov is the U.S. government's official web portal to all federal, state and local government web resources and services.